sensor_id;sensor_type;location;lat;lon;timestamp;pressure;altitude;pressure_sealevel;temperature;humidity
35577;BME280;21680;52.400;16.920;2023-02-15T00:00:53;102517.10;;;-0.05;80.29
35577;BME280;21680;52.400;16.920;2023-02-15T00:03:20;102523.73;;;-0.07;80.35
35577;BME280;21680;52.400;16.920;2023-02-15T00:05:46;102522.64;;;-0.09;80.40
35577;BME280;21680;52.400;16.920;2023-02-15T00:08:12;102527.00;;;-0.09;80.40
35577;BME280;21680;52.400;16.920;2023-02-15T00:10:37;102527.26;;;-0.12;80.43
35577;BME280;21680;52.400;16.920;2023-02-15T00:13:02;102527.75;;;-0.14;80.58
35577;BME280;21680;52.400;16.920;2023-02-15T00:15:27;102526.86;;;-0.14;80.43
35577;BME280;21680;52.400;16.920;2023-02-15T00:17:53;102527.84;;;-0.16;80.58
35577;BME280;21680;52.400;16.920;2023-02-15T00:20:18;102525.88;;;-0.17;80.59
35577;BME280;21680;52.400;16.920;2023-02-15T00:22:44;102527.27;;;-0.18;80.50
35577;BME280;21680;52.400;16.920;2023-02-15T00:25:09;102523.55;;;-0.19;80.60
35577;BME280;21680;52.400;16.920;2023-02-15T00:27:35;102519.83;;;-0.20;80.66
35577;BME280;21680;52.400;16.920;2023-02-15T00:30:00;102516.56;;;-0.23;80.65
35577;BME280;21680;52.400;16.920;2023-02-15T00:32:25;102515.61;;;-0.25;80.63
35577;BME280;21680;52.400;16.920;2023-02-15T00:34:51;102513.45;;;-0.27;80.61
35577;BME280;21680;52.400;16.920;2023-02-15T00:37:16;102508.40;;;-0.31;80.63
35577;BME280;21680;52.400;16.920;2023-02-15T00:39:41;102506.38;;;-0.35;80.65
35577;BME280;21680;52.400;16.920;2023-02-15T00:42:07;102502.40;;;-0.38;80.76
35577;BME280;21680;52.400;16.920;2023-02-15T00:44:32;102500.14;;;-0.43;80.67
35577;BME280;21680;52.400;16.920;2023-02-15T00:46:57;102501.08;;;-0.47;80.63
35577;BME280;21680;52.400;16.920;2023-02-15T00:49:22;102499.09;;;-0.49;80.79
35577;BME280;21680;52.400;16.920;2023-02-15T00:51:48;102493.77;;;-0.50;80.87
35577;BME280;21680;52.400;16.920;2023-02-15T00:54:13;102491.14;;;-0.50;80.87
35577;BME280;21680;52.400;16.920;2023-02-15T00:56:38;102493.42;;;-0.50;80.98
35577;BME280;21680;52.400;16.920;2023-02-15T00:59:03;102492.45;;;-0.53;80.95
35577;BME280;21680;52.400;16.920;2023-02-15T01:01:29;102490.64;;;-0.54;80.95
35577;BME280;21680;52.400;16.920;2023-02-15T01:03:54;102493.40;;;-0.56;80.99
35577;BME280;21680;52.400;16.920;2023-02-15T01:06:19;102488.55;;;-0.60;81.03
35577;BME280;21680;52.400;16.920;2023-02-15T01:08:45;102485.85;;;-0.62;81.11
35577;BME280;21680;52.400;16.920;2023-02-15T01:11:14;102483.34;;;-0.63;81.12
35577;BME280;21680;52.400;16.920;2023-02-15T01:13:40;102476.02;;;-0.67;81.06
35577;BME280;21680;52.400;16.920;2023-02-15T01:16:05;102476.36;;;-0.68;81.19
35577;BME280;21680;52.400;16.920;2023-02-15T01:18:33;102474.86;;;-0.65;81.26
35577;BME280;21680;52.400;16.920;2023-02-15T01:20:59;102478.91;;;-0.64;81.31
35577;BME280;21680;52.400;16.920;2023-02-15T01:23:25;102478.17;;;-0.66;81.19
35577;BME280;21680;52.400;16.920;2023-02-15T01:25:50;102476.95;;;-0.66;81.33
35577;BME280;21680;52.400;16.920;2023-02-15T01:28:15;102476.76;;;-0.66;81.40
35577;BME280;21680;52.400;16.920;2023-02-15T01:30:41;102474.25;;;-0.68;81.43
35577;BME280;21680;52.400;16.920;2023-02-15T01:33:06;102479.47;;;-0.69;81.41
35577;BME280;21680;52.400;16.920;2023-02-15T01:35:32;102475.20;;;-0.71;81.48
35577;BME280;21680;52.400;16.920;2023-02-15T01:37:58;102470.59;;;-0.73;81.52
35577;BME280;21680;52.400;16.920;2023-02-15T01:40:24;102470.55;;;-0.74;81.52
35577;BME280;21680;52.400;16.920;2023-02-15T01:42:51;102465.60;;;-0.75;81.57
35577;BME280;21680;52.400;16.920;2023-02-15T01:45:27;102459.98;;;-0.75;81.65
35577;BME280;21680;52.400;16.920;2023-02-15T01:50:35;102454.79;;;-0.78;81.62
35577;BME280;21680;52.400;16.920;2023-02-15T01:53:16;102453.18;;;-0.79;81.66
35577;BME280;21680;52.400;16.920;2023-02-15T01:55:45;102453.69;;;-0.79;81.57
35577;BME280;21680;52.400;16.920;2023-02-15T01:58:12;102454.48;;;-0.82;81.84
35577;BME280;21680;52.400;16.920;2023-02-15T02:00:39;102453.05;;;-0.83;81.83
35577;BME280;21680;52.400;16.920;2023-02-15T02:03:04;102450.39;;;-0.84;81.65
35577;BME280;21680;52.400;16.920;2023-02-15T02:05:30;102449.11;;;-0.85;81.79
35577;BME280;21680;52.400;16.920;2023-02-15T02:07:58;102445.05;;;-0.86;81.87
35577;BME280;21680;52.400;16.920;2023-02-15T02:10:26;102443.23;;;-0.88;81.96
35577;BME280;21680;52.400;16.920;2023-02-15T02:12:55;102437.45;;;-0.87;81.84
35577;BME280;21680;52.400;16.920;2023-02-15T02:15:29;102435.89;;;-0.87;81.90
35577;BME280;21680;52.400;16.920;2023-02-15T02:18:37;102428.16;;;-0.87;81.89
35577;BME280;21680;52.400;16.920;2023-02-15T02:21:27;102426.05;;;-0.87;82.04
35577;BME280;21680;52.400;16.920;2023-02-15T02:24:23;102426.52;;;-0.89;81.88
35577;BME280;21680;52.400;16.920;2023-02-15T02:35:08;102418.79;;;-0.95;82.05
35577;BME280;21680;52.400;16.920;2023-02-15T02:40:34;102415.36;;;-0.98;82.00
35577;BME280;21680;52.400;16.920;2023-02-15T02:43:31;102415.28;;;-1.01;82.08
35577;BME280;21680;52.400;16.920;2023-02-15T02:46:22;102413.04;;;-1.05;82.08
35577;BME280;21680;52.400;16.920;2023-02-15T02:48:49;102407.80;;;-1.10;81.98
35577;BME280;21680;52.400;16.920;2023-02-15T02:51:15;102404.33;;;-1.14;82.15
35577;BME280;21680;52.400;16.920;2023-02-15T02:53:48;102397.91;;;-1.17;81.98
35577;BME280;21680;52.400;16.920;2023-02-15T02:59:00;102394.19;;;-1.18;82.23
35577;BME280;21680;52.400;16.920;2023-02-15T03:01:44;102393.30;;;-1.19;82.26
35577;BME280;21680;52.400;16.920;2023-02-15T03:04:17;102395.37;;;-1.19;82.24
35577;BME280;21680;52.400;16.920;2023-02-15T03:06:51;102393.75;;;-1.20;82.34
35577;BME280;21680;52.400;16.920;2023-02-15T03:09:45;102388.95;;;-1.23;82.17
35577;BME280;21680;52.400;16.920;2023-02-15T03:12:19;102382.24;;;-1.24;82.27
35577;BME280;21680;52.400;16.920;2023-02-15T03:14:48;102385.00;;;-1.25;82.24
35577;BME280;21680;52.400;16.920;2023-02-15T03:17:17;102385.15;;;-1.26;82.29
35577;BME280;21680;52.400;16.920;2023-02-15T03:19:45;102383.88;;;-1.28;82.31
35577;BME280;21680;52.400;16.920;2023-02-15T03:22:29;102383.11;;;-1.29;82.50
35577;BME280;21680;52.400;16.920;2023-02-15T03:25:01;102384.31;;;-1.30;82.45
35577;BME280;21680;52.400;16.920;2023-02-15T03:27:40;102380.94;;;-1.32;82.57
35577;BME280;21680;52.400;16.920;2023-02-15T03:30:08;102384.60;;;-1.33;82.58
35577;BME280;21680;52.400;16.920;2023-02-15T03:32:37;102385.28;;;-1.33;82.48
35577;BME280;21680;52.400;16.920;2023-02-15T03:35:05;102382.27;;;-1.34;82.62
35577;BME280;21680;52.400;16.920;2023-02-15T03:37:54;102375.96;;;-1.34;82.45
35577;BME280;21680;52.400;16.920;2023-02-15T03:40:26;102377.34;;;-1.35;82.61
35577;BME280;21680;52.400;16.920;2023-02-15T03:43:19;102382.02;;;-1.36;82.60
35577;BME280;21680;52.400;16.920;2023-02-15T03:45:51;102380.20;;;-1.38;82.45
35577;BME280;21680;52.400;16.920;2023-02-15T03:48:27;102380.20;;;-1.38;82.69
35577;BME280;21680;52.400;16.920;2023-02-15T03:50:57;102373.36;;;-1.38;82.72
35577;BME280;21680;52.400;16.920;2023-02-15T03:53:44;102369.66;;;-1.39;82.83
35577;BME280;21680;52.400;16.920;2023-02-15T03:56:10;102370.52;;;-1.39;82.93
35577;BME280;21680;52.400;16.920;2023-02-15T03:58:36;102372.45;;;-1.39;82.89
35577;BME280;21680;52.400;16.920;2023-02-15T04:04:21;102365.40;;;-1.40;82.96
35577;BME280;21680;52.400;16.920;2023-02-15T04:06:47;102358.90;;;-1.40;82.82
35577;BME280;21680;52.400;16.920;2023-02-15T04:09:13;102355.54;;;-1.42;83.00
35577;BME280;21680;52.400;16.920;2023-02-15T04:11:58;102354.45;;;-1.43;82.88
35577;BME280;21680;52.400;16.920;2023-02-15T04:14:24;102350.91;;;-1.44;82.97
35577;BME280;21680;52.400;16.920;2023-02-15T04:17:08;102353.52;;;-1.44;83.11
35577;BME280;21680;52.400;16.920;2023-02-15T04:19:34;102351.06;;;-1.45;83.19
35577;BME280;21680;52.400;16.920;2023-02-15T04:22:18;102347.39;;;-1.44;83.33
35577;BME280;21680;52.400;16.920;2023-02-15T04:25:02;102348.59;;;-1.45;83.23
35577;BME280;21680;52.400;16.920;2023-02-15T04:27:47;102344.56;;;-1.45;83.31
35577;BME280;21680;52.400;16.920;2023-02-15T04:30:15;102340.16;;;-1.45;83.24
35577;BME280;21680;52.400;16.920;2023-02-15T04:32:40;102341.52;;;-1.47;83.37
35577;BME280;21680;52.400;16.920;2023-02-15T04:35:07;102340.23;;;-1.48;83.26
35577;BME280;21680;52.400;16.920;2023-02-15T04:37:33;102342.63;;;-1.50;83.37
35577;BME280;21680;52.400;16.920;2023-02-15T04:39:58;102338.75;;;-1.51;83.44
35577;BME280;21680;52.400;16.920;2023-02-15T04:42:25;102335.73;;;-1.52;83.45
35577;BME280;21680;52.400;16.920;2023-02-15T04:44:51;102333.42;;;-1.53;83.52
35577;BME280;21680;52.400;16.920;2023-02-15T04:47:17;102328.63;;;-1.54;83.47
35577;BME280;21680;52.400;16.920;2023-02-15T04:49:42;102324.39;;;-1.56;83.51
35577;BME280;21680;52.400;16.920;2023-02-15T04:52:08;102323.83;;;-1.56;83.54
35577;BME280;21680;52.400;16.920;2023-02-15T04:54:33;102325.76;;;-1.57;83.78
35577;BME280;21680;52.400;16.920;2023-02-15T04:56:58;102326.00;;;-1.55;83.63
35577;BME280;21680;52.400;16.920;2023-02-15T04:59:23;102326.06;;;-1.53;83.72
35577;BME280;21680;52.400;16.920;2023-02-15T05:01:49;102322.80;;;-1.51;83.83
35577;BME280;21680;52.400;16.920;2023-02-15T05:04:14;102326.16;;;-1.50;83.82
35577;BME280;21680;52.400;16.920;2023-02-15T05:06:40;102322.98;;;-1.50;83.79
35577;BME280;21680;52.400;16.920;2023-02-15T05:09:06;102324.00;;;-1.51;83.71
35577;BME280;21680;52.400;16.920;2023-02-15T05:11:31;102327.68;;;-1.51;83.91
35577;BME280;21680;52.400;16.920;2023-02-15T05:13:57;102326.79;;;-1.52;83.99
35577;BME280;21680;52.400;16.920;2023-02-15T05:16:22;102322.56;;;-1.53;83.73
35577;BME280;21680;52.400;16.920;2023-02-15T05:18:47;102322.91;;;-1.52;83.98
35577;BME280;21680;52.400;16.920;2023-02-15T05:21:12;102320.81;;;-1.53;83.88
35577;BME280;21680;52.400;16.920;2023-02-15T05:23:39;102323.74;;;-1.54;83.81
35577;BME280;21680;52.400;16.920;2023-02-15T05:26:04;102329.50;;;-1.55;83.90
35577;BME280;21680;52.400;16.920;2023-02-15T05:28:49;102331.95;;;-1.55;83.97
35577;BME280;21680;52.400;16.920;2023-02-15T05:31:17;102331.95;;;-1.55;84.04
35577;BME280;21680;52.400;16.920;2023-02-15T05:33:43;102325.83;;;-1.54;83.97
35577;BME280;21680;52.400;16.920;2023-02-15T05:36:10;102328.11;;;-1.54;84.08
35577;BME280;21680;52.400;16.920;2023-02-15T05:38:35;102325.98;;;-1.55;83.82
35577;BME280;21680;52.400;16.920;2023-02-15T05:41:07;102325.61;;;-1.56;84.00
35577;BME280;21680;52.400;16.920;2023-02-15T05:43:33;102324.77;;;-1.55;83.91
35577;BME280;21680;52.400;16.920;2023-02-15T05:45:59;102322.67;;;-1.55;84.03
35577;BME280;21680;52.400;16.920;2023-02-15T05:48:26;102324.25;;;-1.55;83.94
35577;BME280;21680;52.400;16.920;2023-02-15T05:51:02;102323.89;;;-1.54;83.97
35577;BME280;21680;52.400;16.920;2023-02-15T05:53:29;102321.84;;;-1.53;84.10
35577;BME280;21680;52.400;16.920;2023-02-15T05:55:55;102320.27;;;-1.53;84.12
35577;BME280;21680;52.400;16.920;2023-02-15T05:58:28;102319.91;;;-1.53;84.16
35577;BME280;21680;52.400;16.920;2023-02-15T06:00:53;102321.15;;;-1.53;84.16
35577;BME280;21680;52.400;16.920;2023-02-15T06:03:19;102320.45;;;-1.53;84.29
35577;BME280;21680;52.400;16.920;2023-02-15T06:05:44;102319.55;;;-1.54;84.21
35577;BME280;21680;52.400;16.920;2023-02-15T06:08:10;102316.40;;;-1.53;84.23
35577;BME280;21680;52.400;16.920;2023-02-15T06:10:35;102317.94;;;-1.55;84.33
35577;BME280;21680;52.400;16.920;2023-02-15T06:13:00;102320.42;;;-1.54;84.35
35577;BME280;21680;52.400;16.920;2023-02-15T06:15:26;102320.30;;;-1.52;84.33
35577;BME280;21680;52.400;16.920;2023-02-15T06:17:51;102315.41;;;-1.52;84.42
35577;BME280;21680;52.400;16.920;2023-02-15T06:20:17;102318.49;;;-1.48;84.50
35577;BME280;21680;52.400;16.920;2023-02-15T06:22:43;102318.73;;;-1.47;84.51
35577;BME280;21680;52.400;16.920;2023-02-15T06:25:08;102314.36;;;-1.46;84.61
35577;BME280;21680;52.400;16.920;2023-02-15T06:27:35;102315.13;;;-1.44;84.49
35577;BME280;21680;52.400;16.920;2023-02-15T06:30:01;102312.36;;;-1.43;84.63
35577;BME280;21680;52.400;16.920;2023-02-15T06:32:26;102309.59;;;-1.42;84.73
35577;BME280;21680;52.400;16.920;2023-02-15T06:34:51;102304.73;;;-1.40;84.69
35577;BME280;21680;52.400;16.920;2023-02-15T06:37:17;102307.81;;;-1.37;84.68
35577;BME280;21680;52.400;16.920;2023-02-15T06:39:42;102306.70;;;-1.34;84.69
35577;BME280;21680;52.400;16.920;2023-02-15T06:42:08;102310.64;;;-1.31;84.59
35577;BME280;21680;52.400;16.920;2023-02-15T06:44:33;102302.98;;;-1.29;84.84
35577;BME280;21680;52.400;16.920;2023-02-15T06:46:58;102305.70;;;-1.26;84.68
35577;BME280;21680;52.400;16.920;2023-02-15T06:49:23;102307.52;;;-1.24;84.91
35577;BME280;21680;52.400;16.920;2023-02-15T06:51:49;102302.34;;;-1.22;84.81
35577;BME280;21680;52.400;16.920;2023-02-15T06:54:14;102304.88;;;-1.19;84.87
35577;BME280;21680;52.400;16.920;2023-02-15T06:56:39;102301.80;;;-1.17;84.82
35577;BME280;21680;52.400;16.920;2023-02-15T06:59:05;102301.02;;;-1.13;84.98
35577;BME280;21680;52.400;16.920;2023-02-15T07:01:30;102302.84;;;-1.11;84.89
35577;BME280;21680;52.400;16.920;2023-02-15T07:03:55;102300.64;;;-1.09;85.13
35577;BME280;21680;52.400;16.920;2023-02-15T07:06:20;102302.80;;;-1.07;85.10
35577;BME280;21680;52.400;16.920;2023-02-15T07:08:46;102299.19;;;-1.05;85.12
35577;BME280;21680;52.400;16.920;2023-02-15T07:11:11;102297.36;;;-1.01;85.06
35577;BME280;21680;52.400;16.920;2023-02-15T07:13:55;102296.59;;;-0.98;85.18
35577;BME280;21680;52.400;16.920;2023-02-15T07:16:21;102290.88;;;-0.95;85.36
35577;BME280;21680;52.400;16.920;2023-02-15T07:18:46;102287.23;;;-0.94;85.12
35577;BME280;21680;52.400;16.920;2023-02-15T07:21:11;102286.50;;;-0.88;85.19
35577;BME280;21680;52.400;16.920;2023-02-15T07:23:38;102287.71;;;-0.83;85.48
35577;BME280;21680;52.400;16.920;2023-02-15T07:26:05;102285.20;;;-0.79;85.37
35577;BME280;21680;52.400;16.920;2023-02-15T07:28:31;102285.02;;;-0.74;85.55
35577;BME280;21680;52.400;16.920;2023-02-15T07:30:56;102278.29;;;-0.70;85.55
35577;BME280;21680;52.400;16.920;2023-02-15T07:33:23;102274.55;;;-0.65;85.56
35577;BME280;21680;52.400;16.920;2023-02-15T07:35:49;102268.67;;;-0.62;85.48
35577;BME280;21680;52.400;16.920;2023-02-15T07:38:15;102267.93;;;-0.57;85.71
35577;BME280;21680;52.400;16.920;2023-02-15T07:40:42;102265.63;;;-0.52;85.72
35577;BME280;21680;52.400;16.920;2023-02-15T07:43:07;102268.91;;;-0.47;85.71
35577;BME280;21680;52.400;16.920;2023-02-15T07:45:33;102270.13;;;-0.42;85.76
35577;BME280;21680;52.400;16.920;2023-02-15T07:48:00;102268.67;;;-0.38;85.76
35577;BME280;21680;52.400;16.920;2023-02-15T07:50:25;102269.33;;;-0.32;85.76
35577;BME280;21680;52.400;16.920;2023-02-15T07:52:51;102269.44;;;-0.28;85.71
35577;BME280;21680;52.400;16.920;2023-02-15T07:55:16;102271.30;;;-0.24;85.73
35577;BME280;21680;52.400;16.920;2023-02-15T07:57:43;102268.40;;;-0.21;85.91
35577;BME280;21680;52.400;16.920;2023-02-15T08:00:10;102274.85;;;-0.16;85.80
35577;BME280;21680;52.400;16.920;2023-02-15T08:02:36;102265.67;;;-0.12;85.87
35577;BME280;21680;52.400;16.920;2023-02-15T08:05:02;102260.16;;;-0.07;85.92
35577;BME280;21680;52.400;16.920;2023-02-15T08:07:27;102254.67;;;-0.02;85.96
35577;BME280;21680;52.400;16.920;2023-02-15T08:09:53;102251.27;;;0.04;86.08
35577;BME280;21680;52.400;16.920;2023-02-15T08:12:19;102247.88;;;0.09;86.10
35577;BME280;21680;52.400;16.920;2023-02-15T08:14:44;102243.79;;;0.14;86.09
35577;BME280;21680;52.400;16.920;2023-02-15T08:17:09;102244.83;;;0.20;86.10
35577;BME280;21680;52.400;16.920;2023-02-15T08:19:34;102240.73;;;0.25;86.15
35577;BME280;21680;52.400;16.920;2023-02-15T08:22:03;102233.49;;;0.31;86.29
35577;BME280;21680;52.400;16.920;2023-02-15T08:24:34;102225.73;;;0.38;86.27
35577;BME280;21680;52.400;16.920;2023-02-15T08:27:01;102220.80;;;0.45;86.40
35577;BME280;21680;52.400;16.920;2023-02-15T08:29:29;102216.56;;;0.52;86.32
35577;BME280;21680;52.400;16.920;2023-02-15T08:31:58;102209.14;;;0.58;86.34
35577;BME280;21680;52.400;16.920;2023-02-15T08:34:31;102209.65;;;0.65;86.43
35577;BME280;21680;52.400;16.920;2023-02-15T08:36:57;102208.23;;;0.73;86.43
35577;BME280;21680;52.400;16.920;2023-02-15T08:39:23;102207.95;;;0.84;86.56
35577;BME280;21680;52.400;16.920;2023-02-15T08:41:48;102209.34;;;0.91;86.58
35577;BME280;21680;52.400;16.920;2023-02-15T08:44:15;102212.63;;;0.97;86.55
35577;BME280;21680;52.400;16.920;2023-02-15T08:46:43;102208.95;;;1.06;86.87
35577;BME280;21680;52.400;16.920;2023-02-15T08:49:11;102205.08;;;1.15;86.71
35577;BME280;21680;52.400;16.920;2023-02-15T08:51:38;102198.85;;;1.21;86.83
35577;BME280;21680;52.400;16.920;2023-02-15T08:54:06;102195.44;;;1.26;86.66
35577;BME280;21680;52.400;16.920;2023-02-15T08:56:35;102198.07;;;1.35;86.78
35577;BME280;21680;52.400;16.920;2023-02-15T08:59:01;102194.00;;;1.43;86.80
35577;BME280;21680;52.400;16.920;2023-02-15T09:01:28;102191.17;;;1.52;86.95
35577;BME280;21680;52.400;16.920;2023-02-15T09:03:56;102187.30;;;1.62;86.93
35577;BME280;21680;52.400;16.920;2023-02-15T09:06:23;102191.71;;;1.72;87.08
35577;BME280;21680;52.400;16.920;2023-02-15T09:08:49;102191.69;;;1.81;86.95
35577;BME280;21680;52.400;16.920;2023-02-15T09:11:20;102185.67;;;1.89;87.12
35577;BME280;21680;52.400;16.920;2023-02-15T09:13:52;102181.70;;;1.94;86.98
35577;BME280;21680;52.400;16.920;2023-02-15T09:16:17;102182.24;;;1.96;86.90
35577;BME280;21680;52.400;16.920;2023-02-15T09:18:43;102175.92;;;1.97;86.98
35577;BME280;21680;52.400;16.920;2023-02-15T09:21:14;102176.59;;;2.06;86.95
35577;BME280;21680;52.400;16.920;2023-02-15T09:23:44;102173.90;;;2.14;87.09
35577;BME280;21680;52.400;16.920;2023-02-15T09:26:15;102170.33;;;2.22;87.10
35577;BME280;21680;52.400;16.920;2023-02-15T09:28:41;102169.38;;;2.30;87.25
35577;BME280;21680;52.400;16.920;2023-02-15T09:33:38;102167.93;;;2.39;87.05
35577;BME280;21680;52.400;16.920;2023-02-15T09:36:05;102166.98;;;2.46;87.15
35577;BME280;21680;52.400;16.920;2023-02-15T09:38:31;102167.55;;;2.49;87.14
35577;BME280;21680;52.400;16.920;2023-02-15T09:47:06;102157.30;;;2.63;87.30
35577;BME280;21680;52.400;16.920;2023-02-15T10:06:32;102122.85;;;3.05;87.14
35577;BME280;21680;52.400;16.920;2023-02-15T10:14:44;102111.47;;;3.13;86.87
35577;BME280;21680;52.400;16.920;2023-02-15T10:26:20;102100.27;;;3.43;86.88
35577;BME280;21680;52.400;16.920;2023-02-15T10:29:08;102092.58;;;3.51;87.07
35577;BME280;21680;52.400;16.920;2023-02-15T10:34:23;102088.65;;;3.68;86.90
35577;BME280;21680;52.400;16.920;2023-02-15T10:37:16;102088.37;;;3.78;86.94
35577;BME280;21680;52.400;16.920;2023-02-15T10:50:48;102081.44;;;4.25;86.90
35577;BME280;21680;52.400;16.920;2023-02-15T10:56:20;102072.90;;;4.53;86.96
35577;BME280;21680;52.400;16.920;2023-02-15T10:59:18;102062.68;;;4.65;86.72
35577;BME280;21680;52.400;16.920;2023-02-15T11:02:06;102055.64;;;4.76;86.65
35577;BME280;21680;52.400;16.920;2023-02-15T11:07:36;102048.06;;;4.94;86.49
35577;BME280;21680;52.400;16.920;2023-02-15T11:10:39;102041.70;;;5.04;86.52
35577;BME280;21680;52.400;16.920;2023-02-15T11:12:58;102036.75;;;5.22;86.39
35577;BME280;21680;52.400;16.920;2023-02-15T11:15:40;102036.73;;;5.31;86.23
35577;BME280;21680;52.400;16.920;2023-02-15T11:18:19;102036.56;;;5.48;86.53
35577;BME280;21680;52.400;16.920;2023-02-15T11:21:02;102032.47;;;5.73;86.35
35577;BME280;21680;52.400;16.920;2023-02-15T11:23:29;102026.79;;;5.94;86.31
35577;BME280;21680;52.400;16.920;2023-02-15T11:26:00;102027.11;;;6.09;85.74
35577;BME280;21680;52.400;16.920;2023-02-15T11:28:40;102019.23;;;6.26;86.14
35577;BME280;21680;52.400;16.920;2023-02-15T11:31:18;102014.02;;;6.44;86.08
35577;BME280;21680;52.400;16.920;2023-02-15T11:33:47;102016.09;;;6.58;85.82
35577;BME280;21680;52.400;16.920;2023-02-15T11:36:37;102016.39;;;6.70;85.72
35577;BME280;21680;52.400;16.920;2023-02-15T11:39:17;102011.84;;;6.87;85.68
35577;BME280;21680;52.400;16.920;2023-02-15T11:41:52;102010.52;;;6.98;85.10
35577;BME280;21680;52.400;16.920;2023-02-15T11:44:52;102010.86;;;7.00;85.03
35577;BME280;21680;52.400;16.920;2023-02-15T11:47:11;102006.14;;;6.90;84.59
35577;BME280;21680;52.400;16.920;2023-02-15T11:49:38;102005.13;;;6.81;84.43
35577;BME280;21680;52.400;16.920;2023-02-15T11:52:10;102003.92;;;6.74;84.34
35577;BME280;21680;52.400;16.920;2023-02-15T11:54:41;101996.68;;;6.67;84.16
35577;BME280;21680;52.400;16.920;2023-02-15T11:57:15;101992.59;;;6.67;84.25
35577;BME280;21680;52.400;16.920;2023-02-15T11:59:51;101989.90;;;6.71;84.14
35577;BME280;21680;52.400;16.920;2023-02-15T12:02:20;101989.52;;;6.76;83.89
35577;BME280;21680;52.400;16.920;2023-02-15T12:05:09;101990.39;;;6.80;83.73
35577;BME280;21680;52.400;16.920;2023-02-15T12:07:48;101985.04;;;6.82;83.48
35577;BME280;21680;52.400;16.920;2023-02-15T12:12:45;101977.35;;;6.90;83.53
35577;BME280;21680;52.400;16.920;2023-02-15T12:15:11;101977.46;;;6.99;83.29
35577;BME280;21680;52.400;16.920;2023-02-15T12:22:39;101969.84;;;7.20;82.79
35577;BME280;21680;52.400;16.920;2023-02-15T12:25:27;101965.81;;;7.32;82.93
35577;BME280;21680;52.400;16.920;2023-02-15T12:27:54;101969.27;;;7.44;82.60
35577;BME280;21680;52.400;16.920;2023-02-15T12:30:30;101963.52;;;7.50;82.41
35577;BME280;21680;52.400;16.920;2023-02-15T12:33:02;101958.59;;;7.61;82.46
35577;BME280;21680;52.400;16.920;2023-02-15T12:35:33;101953.54;;;7.82;82.34
35577;BME280;21680;52.400;16.920;2023-02-15T12:38:21;101949.65;;;7.95;82.14
35577;BME280;21680;52.400;16.920;2023-02-15T12:41:13;101948.13;;;8.19;82.22
35577;BME280;21680;52.400;16.920;2023-02-15T12:43:46;101942.97;;;8.47;82.07
35577;BME280;21680;52.400;16.920;2023-02-15T12:46:24;101943.85;;;8.60;81.84
35577;BME280;21680;52.400;16.920;2023-02-15T12:49:17;101941.59;;;8.68;81.57
35577;BME280;21680;52.400;16.920;2023-02-15T12:51:55;101937.06;;;8.61;81.18
35577;BME280;21680;52.400;16.920;2023-02-15T12:56:49;101933.15;;;8.48;80.98
35577;BME280;21680;52.400;16.920;2023-02-15T12:59:14;101930.64;;;8.50;80.87
35577;BME280;21680;52.400;16.920;2023-02-15T13:01:45;101931.46;;;8.42;80.48
35577;BME280;21680;52.400;16.920;2023-02-15T13:04:28;101928.05;;;8.29;80.29
35577;BME280;21680;52.400;16.920;2023-02-15T13:06:58;101924.30;;;8.30;80.42
35577;BME280;21680;52.400;16.920;2023-02-15T13:11:56;101914.10;;;8.36;80.08
35577;BME280;21680;52.400;16.920;2023-02-15T13:14:28;101917.22;;;8.41;80.27
35577;BME280;21680;52.400;16.920;2023-02-15T13:16:57;101915.24;;;8.55;80.14
35577;BME280;21680;52.400;16.920;2023-02-15T13:20:20;101911.82;;;8.58;79.86
35577;BME280;21680;52.400;16.920;2023-02-15T13:22:56;101906.88;;;8.54;79.50
35577;BME280;21680;52.400;16.920;2023-02-15T13:25:25;101906.69;;;8.55;79.46
35577;BME280;21680;52.400;16.920;2023-02-15T13:27:56;101906.09;;;8.59;79.51
35577;BME280;21680;52.400;16.920;2023-02-15T13:30:26;101900.48;;;8.64;79.23
35577;BME280;21680;52.400;16.920;2023-02-15T13:32:55;101902.10;;;8.53;78.62
35577;BME280;21680;52.400;16.920;2023-02-15T13:35:24;101897.35;;;8.48;78.72
35577;BME280;21680;52.400;16.920;2023-02-15T13:40:28;101893.30;;;8.45;78.32
35577;BME280;21680;52.400;16.920;2023-02-15T13:43:02;101893.13;;;8.44;78.28
35577;BME280;21680;52.400;16.920;2023-02-15T13:54:32;101893.79;;;8.48;77.89
35577;BME280;21680;52.400;16.920;2023-02-15T13:57:15;101893.64;;;8.46;77.66
35577;BME280;21680;52.400;16.920;2023-02-15T14:05:38;101882.16;;;8.52;77.38
35577;BME280;21680;52.400;16.920;2023-02-15T14:11:15;101877.19;;;8.50;77.21
35577;BME280;21680;52.400;16.920;2023-02-15T14:13:58;101872.91;;;8.50;77.08
35577;BME280;21680;52.400;16.920;2023-02-15T14:16:51;101871.86;;;8.49;76.98
35577;BME280;21680;52.400;16.920;2023-02-15T14:19:38;101867.75;;;8.38;76.64
35577;BME280;21680;52.400;16.920;2023-02-15T14:22:26;101865.19;;;8.28;76.59
35577;BME280;21680;52.400;16.920;2023-02-15T14:30:20;101866.60;;;8.18;76.32
35577;BME280;21680;52.400;16.920;2023-02-15T14:32:49;101864.16;;;8.13;76.18
35577;BME280;21680;52.400;16.920;2023-02-15T14:35:22;101860.45;;;8.10;76.09
35577;BME280;21680;52.400;16.920;2023-02-15T14:38:17;101862.30;;;8.06;76.07
35577;BME280;21680;52.400;16.920;2023-02-15T14:41:04;101859.84;;;8.04;75.95
35577;BME280;21680;52.400;16.920;2023-02-15T14:49:23;101857.67;;;7.92;75.75
35577;BME280;21680;52.400;16.920;2023-02-15T15:02:46;101857.15;;;7.79;75.59
35577;BME280;21680;52.400;16.920;2023-02-15T15:05:24;101852.77;;;7.74;75.51
35577;BME280;21680;52.400;16.920;2023-02-15T15:07:57;101851.77;;;7.69;75.45
35577;BME280;21680;52.400;16.920;2023-02-15T15:18:08;101829.38;;;7.52;75.22
35577;BME280;21680;52.400;16.920;2023-02-15T15:20:44;101829.23;;;7.50;75.13
35577;BME280;21680;52.400;16.920;2023-02-15T15:25:49;101826.48;;;7.41;75.10